Clackamas — WDF6614 — position and weather

sailwx.info

Track history (hours):
 
Tides and Currents Weather Stations Pressure Air Temp Water Temp Dewpoint Dewpoint Depression Visibility Wind Speed Wind Dir Waves Ship Positions

Clackamas

Owner: Port o Portland, Portland, OR. More information available from US FCC via Universal Licensing System and Coast Guard Vessel Documentation Center.

Last reported at 2016-Jun-22 22:14 UTC. Time now 2016-Jun-26 01:08 UTC.
Position N 45°34' W 122°43'.

MMSI: 367476049.

Date/timePositionNaut miles runAvg speedWind from/ knotsBaromVisibWave heightAir tempDewpointWater temp
2016-Jun-22 22:14N 45°34' W 122°43'0 0.0
2016-Jun-22 21:33N 45°34' W 122°43'0 0.0
2016-Jun-22 20:33N 45°34' W 122°43'0 0.0
2016-Jun-22 19:33N 45°34' W 122°43'0 0.0
2016-Jun-22 18:33N 45°34' W 122°43'0 0.0
2016-Jun-22 17:33N 45°34' W 122°43'0 0.0
2016-Jun-22 16:33N 45°34' W 122°43'0 0.0
2016-Jun-22 15:33N 45°34' W 122°43'0 0.0
2016-Jun-22 14:34N 45°34' W 122°43'0 0.0
2016-Jun-22 13:33N 45°34' W 122°43'0 0.0
2016-Jun-22 12:33N 45°34' W 122°43'0 0.0
2016-Jun-22 11:33N 45°34' W 122°43'0 0.0
2016-Jun-22 10:33N 45°34' W 122°43'0 0.0
2016-Jun-22 09:33N 45°34' W 122°43'0 0.0
2016-Jun-22 08:33N 45°34' W 122°43'0 0.0
2016-Jun-22 07:33N 45°34' W 122°43'0 0.0
2016-Jun-22 06:33N 45°34' W 122°43'0 0.0
2016-Jun-22 05:33N 45°34' W 122°43'0 0.0
2016-Jun-22 04:33N 45°34' W 122°43'0 0.0
2016-Jun-22 03:33N 45°34' W 122°43'0 0.0
2016-Jun-22 02:33N 45°34' W 122°43'0 0.0
2016-Jun-22 01:33N 45°34' W 122°43'0 0.0
2016-Jun-22 00:33N 45°34' W 122°43'0 0.0
2016-Jun-21 23:33N 45°34' W 122°43'0 0.0
2016-Jun-21 22:33N 45°34' W 122°43'0 0.0
2016-Jun-21 21:33N 45°34' W 122°43'0 0.0
2016-Jun-21 20:33N 45°34' W 122°43'0 0.0
2016-Jun-21 19:33N 45°34' W 122°43'0 0.0
2016-Jun-21 18:33N 45°34' W 122°43'0 0.0
2016-Jun-21 17:33N 45°34' W 122°43'0 0.0
2016-Jun-21 16:33N 45°34' W 122°43'0 0.0
2016-Jun-21 15:33N 45°34' W 122°43'0 0.0
2016-Jun-21 14:33N 45°34' W 122°43'0 0.0
2016-Jun-21 13:33N 45°34' W 122°43'0 0.0
2016-Jun-21 12:33N 45°34' W 122°43'0 0.0
2016-Jun-21 11:33N 45°34' W 122°43'0 0.0
2016-Jun-21 10:33N 45°34' W 122°43'0 0.0
2016-Jun-21 09:33N 45°34' W 122°43'0 0.0
2016-Jun-21 08:33N 45°34' W 122°43'0 0.0
2016-Jun-21 07:33N 45°34' W 122°43'0 0.0
2016-Jun-21 06:33N 45°34' W 122°43'0 0.0
2016-Jun-21 04:33N 45°34' W 122°43'0 0.0
2016-Jun-21 03:33N 45°34' W 122°43'0 0.0
2016-Jun-21 02:33N 45°34' W 122°43'0 0.0
2016-Jun-21 01:33N 45°34' W 122°43'0 0.0
2016-Jun-21 00:33N 45°34' W 122°43'0 0.0
2016-Jun-20 23:33N 45°34' W 122°43'0 0.0
2016-Jun-20 22:33N 45°34' W 122°43'1 1.1
2016-Jun-20 21:34N 45°34' W 122°44'4 4.4
2016-Jun-20 20:33N 45°39' W 122°46'3 3.0
2016-Jun-20 19:34N 45°37' W 122°43'0 0.2
2016-Jun-20 18:33N 45°37' W 122°43'1 0.6
2016-Jun-20 17:33N 45°38' W 122°44'2 2.2
2016-Jun-20 16:33N 45°39' W 122°46'4 4.0
2016-Jun-20 15:33N 45°35' W 122°45'2 2.0
2016-Jun-20 14:33N 45°34' W 122°43'0 0.0
2016-Jun-20 13:33N 45°34' W 122°43'  
2016-Jun-16 22:19N 45°34' W 122°43'0 0.0
2016-Jun-16 21:33N 45°34' W 122°43'0 0.0
2016-Jun-16 20:33N 45°34' W 122°43'0 0.0
2016-Jun-16 19:34N 45°34' W 122°43'0 0.0
2016-Jun-16 18:34N 45°34' W 122°43'0 0.0
2016-Jun-16 17:34N 45°34' W 122°43'0 0.0
2016-Jun-16 16:33N 45°34' W 122°43'0 0.0
2016-Jun-16 15:33N 45°34' W 122°43'0 0.0
2016-Jun-16 14:33N 45°34' W 122°43'0 0.0
2016-Jun-16 13:34N 45°34' W 122°43'0 0.0
2016-Jun-16 12:34N 45°34' W 122°43'0 0.0
2016-Jun-16 11:34N 45°34' W 122°43'0 0.0
2016-Jun-16 10:33N 45°34' W 122°43'0 0.0
2016-Jun-16 09:34N 45°34' W 122°43'0 0.0
2016-Jun-16 08:33N 45°34' W 122°43'0 0.0
2016-Jun-16 07:33N 45°34' W 122°43'0 0.0
2016-Jun-16 06:34N 45°34' W 122°43'0 0.0
2016-Jun-16 05:34N 45°34' W 122°43'0 0.0
2016-Jun-16 04:34N 45°34' W 122°43'0 0.0
2016-Jun-16 03:34N 45°34' W 122°43'0 0.0
2016-Jun-16 02:34N 45°34' W 122°43'0 0.0
2016-Jun-16 01:34N 45°34' W 122°43'0 0.0
2016-Jun-16 00:33N 45°34' W 122°43'0 0.0
2016-Jun-15 23:34N 45°34' W 122°43'0 0.0
2016-Jun-15 22:34N 45°34' W 122°43'0 0.0
2016-Jun-15 21:33N 45°34' W 122°43'0 0.0
2016-Jun-15 20:33N 45°34' W 122°43'0 0.0
2016-Jun-15 19:33N 45°34' W 122°43'0 0.0
2016-Jun-15 18:34N 45°34' W 122°43'0 0.1
2016-Jun-15 17:33N 45°34' W 122°43'0 0.0
2016-Jun-15 16:34N 45°34' W 122°43'0 0.1
2016-Jun-15 15:34N 45°34' W 122°43'0 0.0
2016-Jun-14 22:22N 45°34' W 122°43'0 0.1
2016-Jun-14 21:34N 45°34' W 122°43'0 0.1
2016-Jun-14 20:33N 45°34' W 122°43'0 0.0
2016-Jun-14 19:34N 45°34' W 122°43'0 0.0
2016-Jun-14 18:33N 45°34' W 122°43'0 0.0
2016-Jun-14 17:33N 45°34' W 122°43'0 0.0
2016-Jun-14 16:33N 45°34' W 122°43'0 0.0
2016-Jun-14 15:33N 45°34' W 122°43'0 0.0
2016-Jun-14 14:33N 45°34' W 122°43'0 0.0
2016-Jun-14 13:33N 45°34' W 122°43'0 0.0
2016-Jun-14 12:33N 45°34' W 122°43'0 0.0
2016-Jun-14 11:33N 45°34' W 122°43'0 0.0
2016-Jun-14 10:33N 45°34' W 122°43'0 0.0
2016-Jun-14 09:33N 45°34' W 122°43'0 0.0
2016-Jun-14 08:33N 45°34' W 122°43'0 0.0
2016-Jun-14 07:34N 45°34' W 122°43'0 0.0
2016-Jun-14 05:33N 45°34' W 122°43'0 0.0
2016-Jun-14 04:33N 45°34' W 122°43'0 0.0
2016-Jun-14 03:33N 45°34' W 122°43'0 0.0
2016-Jun-14 02:33N 45°34' W 122°43'0 0.0
2016-Jun-14 01:34N 45°34' W 122°43'0 0.0
2016-Jun-14 00:33N 45°34' W 122°43'0 0.0
2016-Jun-13 23:33N 45°34' W 122°43'0 0.0
2016-Jun-13 22:33N 45°34' W 122°43'0 0.0
2016-Jun-13 21:33N 45°34' W 122°43'0 0.1
2016-Jun-13 20:34N 45°34' W 122°43'0 0.1
2016-Jun-13 19:33N 45°34' W 122°43'0 0.1
2016-Jun-13 18:33N 45°34' W 122°43'  
Track history (hours):
 
Tides and Currents Weather Stations Pressure Air Temp Water Temp Dewpoint Dewpoint Depression Visibility Wind Speed Wind Dir Waves Ship Positions

Clackamas

Owner: Port o Portland, Portland, OR. More information available from US FCC via Universal Licensing System and Coast Guard Vessel Documentation Center.

Last reported at 2016-Jun-22 22:14 UTC. Time now 2016-Jun-26 01:08 UTC.
Position N 45°34' W 122°43'.

MMSI: 367476049.

Date/timePositionNaut miles runAvg speedWind from/ knotsBaromVisibWave heightAir tempDewpointWater temp
2016-Jun-22 22:14N 45°34' W 122°43'0 0.0
2016-Jun-22 21:33N 45°34' W 122°43'0 0.0
2016-Jun-22 20:33N 45°34' W 122°43'0 0.0
2016-Jun-22 19:33N 45°34' W 122°43'0 0.0
2016-Jun-22 18:33N 45°34' W 122°43'0 0.0
2016-Jun-22 17:33N 45°34' W 122°43'0 0.0
2016-Jun-22 16:33N 45°34' W 122°43'0 0.0
2016-Jun-22 15:33N 45°34' W 122°43'0 0.0
2016-Jun-22 14:34N 45°34' W 122°43'0 0.0
2016-Jun-22 13:33N 45°34' W 122°43'0 0.0
2016-Jun-22 12:33N 45°34' W 122°43'0 0.0
2016-Jun-22 11:33N 45°34' W 122°43'0 0.0
2016-Jun-22 10:33N 45°34' W 122°43'0 0.0
2016-Jun-22 09:33N 45°34' W 122°43'0 0.0
2016-Jun-22 08:33N 45°34' W 122°43'0 0.0
2016-Jun-22 07:33N 45°34' W 122°43'0 0.0
2016-Jun-22 06:33N 45°34' W 122°43'0 0.0
2016-Jun-22 05:33N 45°34' W 122°43'0 0.0
2016-Jun-22 04:33N 45°34' W 122°43'0 0.0
2016-Jun-22 03:33N 45°34' W 122°43'0 0.0
2016-Jun-22 02:33N 45°34' W 122°43'0 0.0
2016-Jun-22 01:33N 45°34' W 122°43'0 0.0
2016-Jun-22 00:33N 45°34' W 122°43'0 0.0
2016-Jun-21 23:33N 45°34' W 122°43'0 0.0
2016-Jun-21 22:33N 45°34' W 122°43'0 0.0
2016-Jun-21 21:33N 45°34' W 122°43'0 0.0
2016-Jun-21 20:33N 45°34' W 122°43'0 0.0
2016-Jun-21 19:33N 45°34' W 122°43'0 0.0
2016-Jun-21 18:33N 45°34' W 122°43'0 0.0
2016-Jun-21 17:33N 45°34' W 122°43'0 0.0
2016-Jun-21 16:33N 45°34' W 122°43'0 0.0
2016-Jun-21 15:33N 45°34' W 122°43'0 0.0
2016-Jun-21 14:33N 45°34' W 122°43'0 0.0
2016-Jun-21 13:33N 45°34' W 122°43'0 0.0
2016-Jun-21 12:33N 45°34' W 122°43'0 0.0
2016-Jun-21 11:33N 45°34' W 122°43'0 0.0
2016-Jun-21 10:33N 45°34' W 122°43'0 0.0
2016-Jun-21 09:33N 45°34' W 122°43'0 0.0
2016-Jun-21 08:33N 45°34' W 122°43'0 0.0
2016-Jun-21 07:33N 45°34' W 122°43'0 0.0
2016-Jun-21 06:33N 45°34' W 122°43'0 0.0
2016-Jun-21 04:33N 45°34' W 122°43'0 0.0
2016-Jun-21 03:33N 45°34' W 122°43'0 0.0
2016-Jun-21 02:33N 45°34' W 122°43'0 0.0
2016-Jun-21 01:33N 45°34' W 122°43'0 0.0
2016-Jun-21 00:33N 45°34' W 122°43'0 0.0
2016-Jun-20 23:33N 45°34' W 122°43'0 0.0
2016-Jun-20 22:33N 45°34' W 122°43'1 1.1
2016-Jun-20 21:34N 45°34' W 122°44'4 4.4
2016-Jun-20 20:33N 45°39' W 122°46'3 3.0
2016-Jun-20 19:34N 45°37' W 122°43'0 0.2
2016-Jun-20 18:33N 45°37' W 122°43'1 0.6
2016-Jun-20 17:33N 45°38' W 122°44'2 2.2
2016-Jun-20 16:33N 45°39' W 122°46'4 4.0
2016-Jun-20 15:33N 45°35' W 122°45'2 2.0
2016-Jun-20 14:33N 45°34' W 122°43'0 0.0
2016-Jun-20 13:33N 45°34' W 122°43'  
2016-Jun-16 22:19N 45°34' W 122°43'0 0.0
2016-Jun-16 21:33N 45°34' W 122°43'0 0.0
2016-Jun-16 20:33N 45°34' W 122°43'0 0.0
2016-Jun-16 19:34N 45°34' W 122°43'0 0.0
2016-Jun-16 18:34N 45°34' W 122°43'0 0.0
2016-Jun-16 17:34N 45°34' W 122°43'0 0.0
2016-Jun-16 16:33N 45°34' W 122°43'0 0.0
2016-Jun-16 15:33N 45°34' W 122°43'0 0.0
2016-Jun-16 14:33N 45°34' W 122°43'0 0.0
2016-Jun-16 13:34N 45°34' W 122°43'0 0.0
2016-Jun-16 12:34N 45°34' W 122°43'0 0.0
2016-Jun-16 11:34N 45°34' W 122°43'0 0.0
2016-Jun-16 10:33N 45°34' W 122°43'0 0.0
2016-Jun-16 09:34N 45°34' W 122°43'0 0.0
2016-Jun-16 08:33N 45°34' W 122°43'0 0.0
2016-Jun-16 07:33N 45°34' W 122°43'0 0.0
2016-Jun-16 06:34N 45°34' W 122°43'0 0.0
2016-Jun-16 05:34N 45°34' W 122°43'0 0.0
2016-Jun-16 04:34N 45°34' W 122°43'0 0.0
2016-Jun-16 03:34N 45°34' W 122°43'0 0.0
2016-Jun-16 02:34N 45°34' W 122°43'0 0.0
2016-Jun-16 01:34N 45°34' W 122°43'0 0.0
2016-Jun-16 00:33N 45°34' W 122°43'0 0.0
2016-Jun-15 23:34N 45°34' W 122°43'0 0.0
2016-Jun-15 22:34N 45°34' W 122°43'0 0.0
2016-Jun-15 21:33N 45°34' W 122°43'0 0.0
2016-Jun-15 20:33N 45°34' W 122°43'0 0.0
2016-Jun-15 19:33N 45°34' W 122°43'0 0.0
2016-Jun-15 18:34N 45°34' W 122°43'0 0.1
2016-Jun-15 17:33N 45°34' W 122°43'0 0.0
2016-Jun-15 16:34N 45°34' W 122°43'0 0.1
2016-Jun-15 15:34N 45°34' W 122°43'0 0.0
2016-Jun-14 22:22N 45°34' W 122°43'0 0.1
2016-Jun-14 21:34N 45°34' W 122°43'0 0.1
2016-Jun-14 20:33N 45°34' W 122°43'0 0.0
2016-Jun-14 19:34N 45°34' W 122°43'0 0.0
2016-Jun-14 18:33N 45°34' W 122°43'0 0.0
2016-Jun-14 17:33N 45°34' W 122°43'0 0.0
2016-Jun-14 16:33N 45°34' W 122°43'0 0.0
2016-Jun-14 15:33N 45°34' W 122°43'0 0.0
2016-Jun-14 14:33N 45°34' W 122°43'0 0.0
2016-Jun-14 13:33N 45°34' W 122°43'0 0.0
2016-Jun-14 12:33N 45°34' W 122°43'0 0.0
2016-Jun-14 11:33N 45°34' W 122°43'0 0.0
2016-Jun-14 10:33N 45°34' W 122°43'0 0.0
2016-Jun-14 09:33N 45°34' W 122°43'0 0.0
2016-Jun-14 08:33N 45°34' W 122°43'0 0.0
2016-Jun-14 07:34N 45°34' W 122°43'0 0.0
2016-Jun-14 05:33N 45°34' W 122°43'0 0.0
2016-Jun-14 04:33N 45°34' W 122°43'0 0.0
2016-Jun-14 03:33N 45°34' W 122°43'0 0.0
2016-Jun-14 02:33N 45°34' W 122°43'0 0.0
2016-Jun-14 01:34N 45°34' W 122°43'0 0.0
2016-Jun-14 00:33N 45°34' W 122°43'0 0.0
2016-Jun-13 23:33N 45°34' W 122°43'0 0.0
2016-Jun-13 22:33N 45°34' W 122°43'0 0.0
2016-Jun-13 21:33N 45°34' W 122°43'0 0.1
2016-Jun-13 20:34N 45°34' W 122°43'0 0.1
2016-Jun-13 19:33N 45°34' W 122°43'0 0.1
2016-Jun-13 18:33N 45°34' W 122°43'  

Dump ship's entire track history